Terminal Aerodrome Forecast
Issued by NWS

Home | Current Version | Previous Version | Text Only | Print | Product List | Glossary On
Versions: 1 2 3 4 5 6 7 8 9 10 11 12
798
FTUS44 KLIX 161130
TAFGPT
TAF
KGPT 161130Z 1612/1712 05005KT P6SM OVC110
     FM161900 09006KT P6SM BKN090 BKN200
     FM170600 10010KT P6SM BKN045 BKN090
     FM170700 10009KT P6SM BKN025 BKN080
     FM170800 10009KT P6SM BKN015 BKN100=

USA.gov is the U.S. government's official web portal to all federal, state and local government web resources and services.